13 sierpnia 2022

Czas Kod Pogoda Temp. Widoczność Sufit Wiatr METAR/SPECI
2:00 pm
V
77 °F 15 mi - 130° 130° 7 kt METAR CYYZ 131800Z 13007KT 080V160 15SM FEW050 FEW120 FEW180 SCT260 25/08 A3012 RMK CU1AC1AC1CI1 CU TR SLP199 DENSITY ALT 1700FT
1:00 pm
V
77 °F 15 mi - 130° 130° 3 kt METAR CYYZ 131700Z 13003KT 15SM FEW040 FEW120 FEW260 25/04 A3014 RMK CU1AC1CI1 CU TR SLP208 DENSITY ALT 1600FT
12:00 pm
V
75 °F 15 mi - 050° 050° 3 kt METAR CYYZ 131600Z 05003KT 290V080 15SM FEW040 FEW120 FEW260 24/04 A3016 RMK CU1AC1CI1 CU TR SLP215 DENSITY ALT 1500FT
11:00 am
V
72 °F 15 mi - 240° 240° 4 kt METAR CYYZ 131500Z 24004KT 200V310 15SM FEW030 FEW140 SCT260 22/08 A3018 RMK CU1AC1CI2 CU TR SLP221 DENSITY ALT 1300FT
10:00 am
V
70 °F 15 mi - Var 000° 0 kt METAR CYYZ 131400Z 00000KT 15SM FEW140 FEW210 SCT260 21/09 A3018 RMK AC1CC1CI1 SLP222 DENSITY ALT 1200FT
9:00 am
V
64 °F 15 mi - 030° 030° 5 kt METAR CYYZ 131300Z 03005KT 15SM FEW180 FEW210 SCT260 18/10 A3018 RMK AC1CC2CI1 AC TR SLP221 DENSITY ALT 800FT
8:00 am
V
61 °F 15 mi - 330° 330° 10 kt METAR CYYZ 131200Z 33010KT 15SM FEW180 SCT250 16/08 A3018 RMK AC1CI3 AC TR SLP223 DENSITY ALT 600FT
7:00 am
V
59 °F 15 mi - 330° 330° 8 kt METAR CYYZ 131100Z 33008KT 15SM FEW180 SCT250 15/08 A3018 RMK AC1CI3 SLP221
6:00 am
V
57 °F 15 mi - 330° 330° 5 kt METAR CYYZ 131000Z 33005KT 15SM SCT200 SCT250 14/07 A3017 RMK CS3CI1 CI TR SLP217
5:00 am
V
57 °F 15 mi - 340° 340° 7 kt METAR CYYZ 130900Z 34007KT 15SM FEW200 14/07 A3017 RMK CS1 SLP217
4:00 am
V
59 °F 15 mi - 310° 310° 3 kt METAR CYYZ 130800Z 31003KT 15SM FEW250 15/06 A3017 RMK CI1 CI TR SLP217
3:00 am
V
59 °F 15 mi - 320° 320° 9 kt METAR CYYZ 130700Z 32009KT 15SM FEW250 15/06 A3017 RMK CI1 CI TR SLP218
2:00 am
V
61 °F 15 mi - 310° 310° 8 kt METAR CYYZ 130600Z 31008KT 15SM FEW250 16/07 A3017 RMK CI1 CI TR SLP217 DENSITY ALT 600FT
1:00 am
V
63 °F 15 mi - 310° 310° 5 kt METAR CYYZ 130500Z 31005KT 15SM FEW250 17/07 A3017 RMK CI1 CI TR SLP219 DENSITY ALT 600FT
12:00 am
V
63 °F 15 mi - 010° 010° 3 kt METAR CYYZ 130400Z 01003KT 15SM FEW250 17/06 A3017 RMK CI1 CI TR SLP217 DENSITY ALT 700FT

12 sierpnia 2022

Czas Kod Pogoda Temp. Widoczność Sufit Wiatr METAR/SPECI
11:00 pm
V
64 °F 15 mi - 360° 360° 6 kt METAR CYYZ 130300Z 36006KT 15SM SKC 18/05 A3016 RMK SLP215 DENSITY ALT 800FT
10:00 pm
V
66 °F 15 mi - 360° 360° 8 kt METAR CYYZ 130200Z 36008KT 15SM SKC 19/03 A3015 RMK SLP212 DENSITY ALT 1000FT
9:00 pm
V
68 °F 15 mi - 360° 360° 12 kt METAR CYYZ 130100Z 36012KT 15SM FEW250 20/01 A3014 RMK CI1 CI TR SLP208 DENSITY ALT 1100FT
8:00 pm
V
72 °F 15 mi - 010° 010° 13 kt METAR CYYZ 130000Z 01013KT 15SM FEW250 22/03 A3013 RMK CI1 CI TR SLP206 DENSITY ALT 1300FT
7:00 pm
V
73 °F 15 mi - 020° 020° 11 - 16 kt METAR CYYZ 122300Z 02011G16KT 15SM FEW050 FEW250 23/04 A3013 RMK CF1CI1 CF TR CI TR SLP206 DENSITY ALT 1400FT
6:00 pm
V
77 °F 15 mi - 350° 350° 13 kt METAR CYYZ 122200Z 35013KT 15SM FEW050 FEW250 25/04 A3014 RMK CF1CI1 CF TR CI TR SLP207 DENSITY ALT 1600FT
5:00 pm
V
77 °F 15 mi - 350° 350° 11 - 19 kt METAR CYYZ 122100Z 35011G19KT 320V030 15SM FEW050 FEW250 25/05 A3014 RMK CF1CI1 CF TR CI TR SLP208 DENSITY ALT 1700FT
4:00 pm
V
77 °F 15 mi - 330° 330° 7 - 21 kt METAR CYYZ 122000Z 33007G21KT 15SM FEW050 FEW250 25/04 A3015 RMK CF1CI1 CF TR CI TR SLP210 DENSITY ALT 1700FT
3:00 pm
V
77 °F 15 mi - 320° 320° 5 - 16 kt METAR CYYZ 121900Z 32005G16KT 300V020 15SM FEW040 25/06 A3016 RMK CF1 CF TR SLP213 DENSITY ALT 1700FT
2:00 pm
V
77 °F 15 mi - 340° 340° 12 kt METAR CYYZ 121800Z 34012KT 15SM FEW040 25/05 A3016 RMK CF1 CF TR SLP216 DENSITY ALT 1600FT
1:00 pm
V
75 °F 15 mi - 330° 330° 11 - 18 kt METAR CYYZ 121700Z 33011G18KT 310V020 15SM FEW040 24/04 A3018 RMK CF1 CF TR SLP221 DENSITY ALT 1500FT
12:00 pm
V
75 °F 15 mi - 340° 340° 8 - 16 kt METAR CYYZ 121600Z 34008G16KT 310V020 15SM FEW040 24/05 A3019 RMK CU1 CU TR SLP225 DENSITY ALT 1400FT
11:00 am
V
73 °F 15 mi - 020° 020° 8 kt METAR CYYZ 121500Z 02008KT 330V070 15SM FEW025 23/05 A3019 RMK CU1 CU TR SLP224 DENSITY ALT 1300FT
10:00 am
V
72 °F 15 mi - 340° 340° 5 kt METAR CYYZ 121400Z 34005KT 280V040 15SM FEW025 22/09 A3019 RMK CU1 CU TR SLP224 DENSITY ALT 1300FT
9:00 am
V
66 °F 15 mi - 330° 330° 4 kt METAR CYYZ 121300Z 33004KT 310V030 15SM SKC 19/10 A3019 RMK SLP223 DENSITY ALT 900FT
8:00 am
V
63 °F 15 mi - 340° 340° 5 kt METAR CYYZ 121200Z 34005KT 15SM SKC 17/12 A3017 RMK SLP219 DENSITY ALT 600FT
7:00 am
V
59 °F 15 mi - 320° 320° 4 kt METAR CYYZ 121100Z 32004KT 310V010 15SM SKC 15/12 A3017 RMK SLP218
6:00 am
V
57 °F 15 mi - 360° 360° 7 kt METAR CYYZ 121000Z 36007KT 15SM SKC 14/12 A3014 RMK SLP209
5:00 am
V
57 °F 15 mi - 360° 360° 4 kt METAR CYYZ 120900Z 36004KT 15SM SKC 14/12 A3013 RMK SLP205
4:00 am
V
57 °F 15 mi - 360° 360° 6 kt METAR CYYZ 120800Z 36006KT 15SM SKC 14/11 A3012 RMK SLP202
3:00 am
V
61 °F 15 mi - 330° 330° 10 kt METAR CYYZ 120700Z 33010KT 15SM SKC 16/10 A3011 RMK SLP199 DENSITY ALT 600FT
2:00 am
V
61 °F 15 mi - 330° 330° 9 kt METAR CYYZ 120600Z 33009KT 15SM SKC 16/10 A3012 RMK SLP199 DENSITY ALT 700FT
1:00 am
V
63 °F 15 mi - 340° 340° 8 kt METAR CYYZ 120500Z 34008KT 15SM SKC 17/09 A3012 RMK SLP200 DENSITY ALT 700FT
12:00 am
V
64 °F 15 mi - 330° 330° 11 kt METAR CYYZ 120400Z 33011KT 15SM SKC 18/09 A3011 RMK SLP198 DENSITY ALT 800FT

11 sierpnia 2022

Czas Kod Pogoda Temp. Widoczność Sufit Wiatr METAR/SPECI
11:00 pm
V
64 °F 15 mi - 340° 340° 13 kt METAR CYYZ 120300Z 34013KT 15SM SKC 18/08 A3010 RMK SLP193 DENSITY ALT 900FT
10:00 pm
V
66 °F 15 mi - 340° 340° 10 - 16 kt METAR CYYZ 120200Z 34010G16KT 15SM SKC 19/08 A3009 RMK SLP190 DENSITY ALT 1000FT
9:00 pm
V
68 °F 15 mi - 340° 340° 11 - 17 kt METAR CYYZ 120100Z 34011G17KT 15SM SKC 20/08 A3007 RMK SLP185 DENSITY ALT 1100FT
8:00 pm
V
68 °F 15 mi - 340° 340° 17 kt METAR CYYZ 120000Z 34017KT 15SM SKC 20/11 A3006 RMK SLP179 DENSITY ALT 1200FT
7:00 pm
V
72 °F 15 mi - 330° 330° 17 kt METAR CYYZ 112300Z 33017KT 15SM FEW050 22/08 A3004 RMK CF1 CF TR SLP174 DENSITY ALT 1400FT
6:00 pm
V
73 °F 15 mi - 010° 010° 15 - 22 kt METAR CYYZ 112200Z 01015G22KT 15SM FEW050 23/09 A3003 RMK CU1 SLP170 DENSITY ALT 1600FT
5:00 pm
V
75 °F 15 mi - 330° 330° 15 - 23 kt METAR CYYZ 112100Z 33015G23KT 15SM FEW055 24/10 A3003 RMK CU2 SLP168 DENSITY ALT 1700FT
4:00 pm
V
77 °F 15 mi - 340° 340° 18 - 24 kt METAR CYYZ 112000Z 34018G24KT 15SM SCT055 25/12 A3002 RMK CU3 SLP166 DENSITY ALT 1800FT
3:00 pm
V
77 °F 15 mi - 340° 340° 12 - 23 kt METAR CYYZ 111900Z 34012G23KT 15SM SCT060 25/11 A3002 RMK CU4 SLP167 DENSITY ALT 1800FT
2:00 pm
V
79 °F 15 mi 6.000 ft 350° 350° 13 - 21 kt METAR CYYZ 111800Z 35013G21KT 15SM BKN060 26/11 A3002 RMK CU5 SLP166 DENSITY ALT 1900FT
1:00 pm
V
77 °F 15 mi 5.500 ft 330° 330° 17 - 25 kt METAR CYYZ 111700Z 33017G25KT 15SM BKN055 25/09 A3003 RMK CU5 SLP168 DENSITY ALT 1800FT
12:00 pm
V
77 °F 15 mi - 360° 360° 12 - 17 kt METAR CYYZ 111600Z 36012G17KT 15SM SCT030 25/11 A3003 RMK CU3 SLP168 DENSITY ALT 1700FT
11:00 am
V
73 °F 15 mi - 330° 330° 14 kt METAR CYYZ 111500Z 33014KT 15SM FEW025 FEW250 23/13 A3002 RMK CU1CI1 CI TR SLP166 DENSITY ALT 1600FT
Starsze dane

My i osoby trzecie śledzimy twoje zachowanie w internecie na naszej stronie za pomocą plików cookie. Jeśli kontynuujesz, zakładamy, że zgadzasz się z naszą polityką plików cookie. Dowiedz się więcej